Haynesville, Maine
Current Conditions -  °F | °C
As of 2:53 AM on Sunday 26 Oct 2014 (Local Time) from KHUL Reporting Station
Light Rain Light Rain  
Wind Chill: 39°   Ceiling: 700
Heat Index: 43°   Visibility: 10mi
Dew Point: 40°   Wind: 7mph
Humidity: 89%   Direction: 140°SE
Pressure: 29.41"   Gusts: NA
Location:  45.7877°N, 68.0764°W
Report Text: KHUL 260653Z AUTO 14006KT 10SM -RA OVC007 06/04 A2941 RMK AO2 SLP962 P0001 T00610044
Loading
Personal Weather Stations






























Interactive Weather Map
Tropical Storm Tracking
New forecast layout! Learn more

10-Day Weather Forecast

Advertisements
Track Severe Weather on mobile